sensor_id;sensor_type;location;lat;lon;timestamp;P1;durP1;ratioP1;P2;durP2;ratioP2
75129;SDS011;63703;44.716;37.846;2022-11-27T00:01:53;13.57;;;7.70;;
75129;SDS011;63703;44.716;37.846;2022-11-27T00:04:19;13.25;;;7.03;;
75129;SDS011;63703;44.716;37.846;2022-11-27T00:06:45;10.27;;;6.78;;
75129;SDS011;63703;44.716;37.846;2022-11-27T00:09:12;9.35;;;4.80;;
75129;SDS011;63703;44.716;37.846;2022-11-27T00:11:40;9.48;;;5.22;;
75129;SDS011;63703;44.716;37.846;2022-11-27T00:14:07;9.73;;;6.65;;
75129;SDS011;63703;44.716;37.846;2022-11-27T00:16:36;8.10;;;4.90;;
75129;SDS011;63703;44.716;37.846;2022-11-27T00:19:02;8.73;;;3.97;;
75129;SDS011;63703;44.716;37.846;2022-11-27T00:21:29;6.90;;;4.88;;
75129;SDS011;63703;44.716;37.846;2022-11-27T00:23:57;8.07;;;5.72;;
75129;SDS011;63703;44.716;37.846;2022-11-27T00:26:24;8.30;;;5.70;;
75129;SDS011;63703;44.716;37.846;2022-11-27T00:28:52;9.30;;;5.78;;
75129;SDS011;63703;44.716;37.846;2022-11-27T00:31:19;9.43;;;4.57;;
75129;SDS011;63703;44.716;37.846;2022-11-27T00:33:52;9.23;;;5.68;;
75129;SDS011;63703;44.716;37.846;2022-11-27T00:36:22;8.48;;;5.82;;
75129;SDS011;63703;44.716;37.846;2022-11-27T00:38:49;8.25;;;4.55;;
75129;SDS011;63703;44.716;37.846;2022-11-27T00:41:16;7.28;;;4.25;;
75129;SDS011;63703;44.716;37.846;2022-11-27T00:43:44;7.93;;;5.18;;
75129;SDS011;63703;44.716;37.846;2022-11-27T00:46:11;10.45;;;6.30;;
75129;SDS011;63703;44.716;37.846;2022-11-27T00:48:38;8.60;;;5.68;;
75129;SDS011;63703;44.716;37.846;2022-11-27T00:51:05;8.40;;;5.43;;
75129;SDS011;63703;44.716;37.846;2022-11-27T00:53:33;9.40;;;6.63;;
75129;SDS011;63703;44.716;37.846;2022-11-27T00:55:59;9.77;;;6.45;;
75129;SDS011;63703;44.716;37.846;2022-11-27T00:58:25;8.20;;;6.25;;
75129;SDS011;63703;44.716;37.846;2022-11-27T01:00:55;9.30;;;5.40;;
75129;SDS011;63703;44.716;37.846;2022-11-27T01:03:23;10.18;;;5.82;;
75129;SDS011;63703;44.716;37.846;2022-11-27T01:05:49;7.60;;;4.28;;
75129;SDS011;63703;44.716;37.846;2022-11-27T01:08:15;6.95;;;5.43;;
75129;SDS011;63703;44.716;37.846;2022-11-27T01:10:48;7.38;;;5.10;;
75129;SDS011;63703;44.716;37.846;2022-11-27T01:13:19;7.00;;;4.68;;
75129;SDS011;63703;44.716;37.846;2022-11-27T01:16:10;5.55;;;3.63;;
75129;SDS011;63703;44.716;37.846;2022-11-27T01:18:42;6.38;;;4.35;;
75129;SDS011;63703;44.716;37.846;2022-11-27T01:21:10;8.30;;;4.90;;
75129;SDS011;63703;44.716;37.846;2022-11-27T01:23:37;6.90;;;4.53;;
75129;SDS011;63703;44.716;37.846;2022-11-27T01:26:03;7.75;;;4.70;;
75129;SDS011;63703;44.716;37.846;2022-11-27T01:28:31;10.00;;;6.18;;
75129;SDS011;63703;44.716;37.846;2022-11-27T01:30:57;9.52;;;5.68;;
75129;SDS011;63703;44.716;37.846;2022-11-27T01:33:24;8.15;;;4.20;;
75129;SDS011;63703;44.716;37.846;2022-11-27T01:35:53;6.97;;;3.78;;
75129;SDS011;63703;44.716;37.846;2022-11-27T01:38:20;6.72;;;5.25;;
75129;SDS011;63703;44.716;37.846;2022-11-27T01:40:47;7.53;;;4.38;;
75129;SDS011;63703;44.716;37.846;2022-11-27T01:43:13;7.47;;;4.65;;
75129;SDS011;63703;44.716;37.846;2022-11-27T01:45:40;13.00;;;4.78;;
75129;SDS011;63703;44.716;37.846;2022-11-27T01:48:08;8.13;;;5.15;;
75129;SDS011;63703;44.716;37.846;2022-11-27T01:50:37;7.55;;;4.32;;
75129;SDS011;63703;44.716;37.846;2022-11-27T01:53:14;6.93;;;4.90;;
75129;SDS011;63703;44.716;37.846;2022-11-27T01:55:43;6.55;;;4.55;;
75129;SDS011;63703;44.716;37.846;2022-11-27T01:58:17;6.55;;;4.43;;
75129;SDS011;63703;44.716;37.846;2022-11-27T02:00:47;7.68;;;4.60;;
75129;SDS011;63703;44.716;37.846;2022-11-27T02:03:13;6.95;;;4.47;;
75129;SDS011;63703;44.716;37.846;2022-11-27T02:05:40;6.65;;;4.03;;
75129;SDS011;63703;44.716;37.846;2022-11-27T02:08:08;7.18;;;4.45;;
75129;SDS011;63703;44.716;37.846;2022-11-27T02:10:57;8.70;;;5.30;;
75129;SDS011;63703;44.716;37.846;2022-11-27T02:13:37;8.85;;;5.00;;
75129;SDS011;63703;44.716;37.846;2022-11-27T02:18:42;6.18;;;3.30;;
75129;SDS011;63703;44.716;37.846;2022-11-27T02:21:36;7.38;;;4.07;;
75129;SDS011;63703;44.716;37.846;2022-11-27T02:26:58;5.78;;;4.32;;
75129;SDS011;63703;44.716;37.846;2022-11-27T02:29:33;7.47;;;5.00;;
75129;SDS011;63703;44.716;37.846;2022-11-27T02:34:53;6.70;;;3.92;;
75129;SDS011;63703;44.716;37.846;2022-11-27T02:37:26;5.65;;;3.15;;
75129;SDS011;63703;44.716;37.846;2022-11-27T02:40:17;6.78;;;3.85;;
75129;SDS011;63703;44.716;37.846;2022-11-27T02:45:37;7.45;;;4.68;;
75129;SDS011;63703;44.716;37.846;2022-11-27T02:50:32;6.57;;;4.25;;
75129;SDS011;63703;44.716;37.846;2022-11-27T02:53:01;7.07;;;4.90;;
75129;SDS011;63703;44.716;37.846;2022-11-27T02:55:32;6.95;;;4.63;;
75129;SDS011;63703;44.716;37.846;2022-11-27T02:58:01;6.65;;;4.03;;
75129;SDS011;63703;44.716;37.846;2022-11-27T03:00:30;6.90;;;4.57;;
75129;SDS011;63703;44.716;37.846;2022-11-27T03:02:59;5.95;;;4.80;;
75129;SDS011;63703;44.716;37.846;2022-11-27T03:05:29;4.95;;;1.67;;
75129;SDS011;63703;44.716;37.846;2022-11-27T03:10:52;5.45;;;4.20;;
75129;SDS011;63703;44.716;37.846;2022-11-27T03:13:23;5.03;;;3.85;;
75129;SDS011;63703;44.716;37.846;2022-11-27T03:15:52;5.95;;;3.30;;
75129;SDS011;63703;44.716;37.846;2022-11-27T03:18:48;5.20;;;3.75;;
75129;SDS011;63703;44.716;37.846;2022-11-27T03:21:44;6.15;;;3.90;;
75129;SDS011;63703;44.716;37.846;2022-11-27T03:24:12;5.93;;;3.95;;
75129;SDS011;63703;44.716;37.846;2022-11-27T03:26:38;5.97;;;2.55;;
75129;SDS011;63703;44.716;37.846;2022-11-27T03:29:06;4.30;;;2.03;;
75129;SDS011;63703;44.716;37.846;2022-11-27T03:31:35;4.97;;;3.60;;
75129;SDS011;63703;44.716;37.846;2022-11-27T03:34:01;4.78;;;3.58;;
75129;SDS011;63703;44.716;37.846;2022-11-27T03:36:28;4.97;;;3.38;;
75129;SDS011;63703;44.716;37.846;2022-11-27T03:38:54;5.00;;;3.92;;
75129;SDS011;63703;44.716;37.846;2022-11-27T03:41:31;6.43;;;3.63;;
75129;SDS011;63703;44.716;37.846;2022-11-27T03:44:06;4.25;;;2.42;;
75129;SDS011;63703;44.716;37.846;2022-11-27T03:50:04;6.25;;;3.90;;
75129;SDS011;63703;44.716;37.846;2022-11-27T03:57:33;4.20;;;3.20;;
75129;SDS011;63703;44.716;37.846;2022-11-27T04:00:20;5.18;;;3.60;;
75129;SDS011;63703;44.716;37.846;2022-11-27T04:02:47;4.60;;;1.90;;
75129;SDS011;63703;44.716;37.846;2022-11-27T04:05:16;5.30;;;3.47;;
75129;SDS011;63703;44.716;37.846;2022-11-27T04:07:42;6.25;;;3.50;;
75129;SDS011;63703;44.716;37.846;2022-11-27T04:10:09;5.57;;;3.35;;
75129;SDS011;63703;44.716;37.846;2022-11-27T04:12:35;4.90;;;3.33;;
75129;SDS011;63703;44.716;37.846;2022-11-27T04:15:02;4.75;;;3.05;;
75129;SDS011;63703;44.716;37.846;2022-11-27T04:17:28;4.72;;;3.42;;
75129;SDS011;63703;44.716;37.846;2022-11-27T04:19:54;4.95;;;3.08;;
75129;SDS011;63703;44.716;37.846;2022-11-27T04:22:20;5.72;;;4.97;;
75129;SDS011;63703;44.716;37.846;2022-11-27T04:24:46;6.32;;;3.65;;
75129;SDS011;63703;44.716;37.846;2022-11-27T04:27:12;5.47;;;3.25;;
75129;SDS011;63703;44.716;37.846;2022-11-27T04:29:38;4.50;;;2.75;;
75129;SDS011;63703;44.716;37.846;2022-11-27T04:32:04;5.70;;;3.53;;
75129;SDS011;63703;44.716;37.846;2022-11-27T04:34:30;4.82;;;3.28;;
75129;SDS011;63703;44.716;37.846;2022-11-27T04:36:57;5.20;;;3.00;;
75129;SDS011;63703;44.716;37.846;2022-11-27T04:39:23;5.47;;;3.28;;
75129;SDS011;63703;44.716;37.846;2022-11-27T04:41:49;5.15;;;3.08;;
75129;SDS011;63703;44.716;37.846;2022-11-27T04:44:15;5.20;;;3.67;;
75129;SDS011;63703;44.716;37.846;2022-11-27T04:46:41;5.85;;;3.55;;
75129;SDS011;63703;44.716;37.846;2022-11-27T04:49:08;5.50;;;3.83;;
75129;SDS011;63703;44.716;37.846;2022-11-27T04:51:34;4.88;;;2.30;;
75129;SDS011;63703;44.716;37.846;2022-11-27T04:54:00;5.28;;;2.17;;
75129;SDS011;63703;44.716;37.846;2022-11-27T04:56:26;5.25;;;1.70;;
75129;SDS011;63703;44.716;37.846;2022-11-27T04:58:52;5.13;;;3.17;;
75129;SDS011;63703;44.716;37.846;2022-11-27T05:01:18;5.15;;;4.10;;
75129;SDS011;63703;44.716;37.846;2022-11-27T05:03:45;3.72;;;2.25;;
75129;SDS011;63703;44.716;37.846;2022-11-27T05:06:12;4.68;;;2.95;;
75129;SDS011;63703;44.716;37.846;2022-11-27T05:08:38;7.80;;;3.60;;
75129;SDS011;63703;44.716;37.846;2022-11-27T05:11:05;4.32;;;2.13;;
75129;SDS011;63703;44.716;37.846;2022-11-27T05:13:41;7.25;;;4.63;;
75129;SDS011;63703;44.716;37.846;2022-11-27T05:16:07;6.05;;;2.92;;
75129;SDS011;63703;44.716;37.846;2022-11-27T05:18:34;5.18;;;2.70;;
75129;SDS011;63703;44.716;37.846;2022-11-27T05:21:01;6.53;;;5.32;;
75129;SDS011;63703;44.716;37.846;2022-11-27T05:23:30;4.28;;;3.35;;
75129;SDS011;63703;44.716;37.846;2022-11-27T05:25:56;6.57;;;3.78;;
75129;SDS011;63703;44.716;37.846;2022-11-27T05:28:22;7.00;;;4.43;;
75129;SDS011;63703;44.716;37.846;2022-11-27T05:30:48;5.22;;;2.63;;
75129;SDS011;63703;44.716;37.846;2022-11-27T05:33:15;5.72;;;4.05;;
75129;SDS011;63703;44.716;37.846;2022-11-27T05:35:42;5.57;;;3.85;;
75129;SDS011;63703;44.716;37.846;2022-11-27T05:38:08;5.63;;;3.72;;
75129;SDS011;63703;44.716;37.846;2022-11-27T05:40:34;5.95;;;3.22;;
75129;SDS011;63703;44.716;37.846;2022-11-27T05:43:00;7.35;;;4.43;;
75129;SDS011;63703;44.716;37.846;2022-11-27T05:45:26;5.32;;;2.90;;
75129;SDS011;63703;44.716;37.846;2022-11-27T05:47:51;5.90;;;4.20;;
75129;SDS011;63703;44.716;37.846;2022-11-27T05:50:17;7.45;;;3.67;;
75129;SDS011;63703;44.716;37.846;2022-11-27T05:52:43;7.32;;;2.92;;
75129;SDS011;63703;44.716;37.846;2022-11-27T05:55:09;6.05;;;3.80;;
75129;SDS011;63703;44.716;37.846;2022-11-27T05:57:35;5.18;;;3.70;;
75129;SDS011;63703;44.716;37.846;2022-11-27T06:00:00;8.65;;;3.08;;
75129;SDS011;63703;44.716;37.846;2022-11-27T06:02:30;5.88;;;3.00;;
75129;SDS011;63703;44.716;37.846;2022-11-27T06:04:56;5.25;;;3.63;;
75129;SDS011;63703;44.716;37.846;2022-11-27T06:07:22;5.93;;;4.30;;
75129;SDS011;63703;44.716;37.846;2022-11-27T06:09:48;4.85;;;2.88;;
75129;SDS011;63703;44.716;37.846;2022-11-27T06:12:14;5.13;;;3.30;;
75129;SDS011;63703;44.716;37.846;2022-11-27T06:14:40;5.75;;;3.58;;
75129;SDS011;63703;44.716;37.846;2022-11-27T06:17:06;6.45;;;2.22;;
75129;SDS011;63703;44.716;37.846;2022-11-27T06:19:32;4.82;;;3.25;;
75129;SDS011;63703;44.716;37.846;2022-11-27T06:21:58;4.30;;;1.98;;
75129;SDS011;63703;44.716;37.846;2022-11-27T06:24:23;5.47;;;4.30;;
75129;SDS011;63703;44.716;37.846;2022-11-27T06:26:49;5.50;;;3.90;;
75129;SDS011;63703;44.716;37.846;2022-11-27T06:29:15;7.30;;;5.45;;
75129;SDS011;63703;44.716;37.846;2022-11-27T06:31:41;4.55;;;2.30;;
75129;SDS011;63703;44.716;37.846;2022-11-27T06:34:07;6.70;;;3.85;;
75129;SDS011;63703;44.716;37.846;2022-11-27T06:36:36;6.63;;;4.15;;
75129;SDS011;63703;44.716;37.846;2022-11-27T06:39:05;5.47;;;3.58;;
75129;SDS011;63703;44.716;37.846;2022-11-27T06:41:32;7.15;;;4.40;;
75129;SDS011;63703;44.716;37.846;2022-11-27T06:43:59;6.32;;;4.20;;
75129;SDS011;63703;44.716;37.846;2022-11-27T06:46:26;5.70;;;3.95;;
75129;SDS011;63703;44.716;37.846;2022-11-27T06:48:53;4.82;;;1.80;;
75129;SDS011;63703;44.716;37.846;2022-11-27T06:51:20;6.95;;;3.88;;
75129;SDS011;63703;44.716;37.846;2022-11-27T06:53:48;7.75;;;3.83;;
75129;SDS011;63703;44.716;37.846;2022-11-27T06:56:16;6.55;;;4.18;;
75129;SDS011;63703;44.716;37.846;2022-11-27T06:58:44;7.68;;;4.63;;
75129;SDS011;63703;44.716;37.846;2022-11-27T07:01:14;5.53;;;3.90;;
75129;SDS011;63703;44.716;37.846;2022-11-27T07:03:42;6.72;;;4.13;;
75129;SDS011;63703;44.716;37.846;2022-11-27T07:06:09;6.55;;;4.60;;
75129;SDS011;63703;44.716;37.846;2022-11-27T07:08:36;12.52;;;3.40;;
75129;SDS011;63703;44.716;37.846;2022-11-27T07:13:29;7.05;;;4.55;;
75129;SDS011;63703;44.716;37.846;2022-11-27T07:15:58;6.40;;;3.88;;
75129;SDS011;63703;44.716;37.846;2022-11-27T07:18:25;6.80;;;4.40;;
75129;SDS011;63703;44.716;37.846;2022-11-27T07:20:52;5.88;;;2.60;;
75129;SDS011;63703;44.716;37.846;2022-11-27T07:23:18;7.28;;;4.50;;
75129;SDS011;63703;44.716;37.846;2022-11-27T07:25:44;6.43;;;3.97;;
75129;SDS011;63703;44.716;37.846;2022-11-27T07:28:10;6.80;;;2.60;;
75129;SDS011;63703;44.716;37.846;2022-11-27T07:30:36;6.75;;;3.85;;
75129;SDS011;63703;44.716;37.846;2022-11-27T07:33:03;5.95;;;4.47;;
75129;SDS011;63703;44.716;37.846;2022-11-27T07:35:28;5.63;;;2.83;;
75129;SDS011;63703;44.716;37.846;2022-11-27T07:37:54;5.28;;;2.88;;
75129;SDS011;63703;44.716;37.846;2022-11-27T07:40:20;7.15;;;4.95;;
75129;SDS011;63703;44.716;37.846;2022-11-27T07:42:46;7.00;;;2.67;;
75129;SDS011;63703;44.716;37.846;2022-11-27T07:45:13;6.82;;;4.10;;
75129;SDS011;63703;44.716;37.846;2022-11-27T07:47:39;9.73;;;4.40;;
75129;SDS011;63703;44.716;37.846;2022-11-27T07:50:05;8.30;;;5.00;;
75129;SDS011;63703;44.716;37.846;2022-11-27T07:52:33;10.27;;;5.20;;
75129;SDS011;63703;44.716;37.846;2022-11-27T07:55:02;5.43;;;2.95;;
75129;SDS011;63703;44.716;37.846;2022-11-27T07:57:29;6.43;;;2.90;;
75129;SDS011;63703;44.716;37.846;2022-11-27T07:59:55;6.97;;;4.93;;
75129;SDS011;63703;44.716;37.846;2022-11-27T08:02:20;8.35;;;5.57;;
75129;SDS011;63703;44.716;37.846;2022-11-27T08:04:46;7.88;;;4.72;;
75129;SDS011;63703;44.716;37.846;2022-11-27T08:07:12;7.78;;;4.53;;
75129;SDS011;63703;44.716;37.846;2022-11-27T08:09:38;9.40;;;5.82;;
75129;SDS011;63703;44.716;37.846;2022-11-27T08:12:04;6.80;;;3.50;;
75129;SDS011;63703;44.716;37.846;2022-11-27T08:14:31;8.10;;;4.38;;
75129;SDS011;63703;44.716;37.846;2022-11-27T08:16:57;8.18;;;4.10;;
75129;SDS011;63703;44.716;37.846;2022-11-27T08:19:23;5.30;;;4.15;;
75129;SDS011;63703;44.716;37.846;2022-11-27T08:21:49;5.72;;;3.17;;
75129;SDS011;63703;44.716;37.846;2022-11-27T08:24:15;5.72;;;2.88;;
75129;SDS011;63703;44.716;37.846;2022-11-27T08:26:41;6.32;;;3.45;;
75129;SDS011;63703;44.716;37.846;2022-11-27T08:29:09;4.82;;;3.80;;
75129;SDS011;63703;44.716;37.846;2022-11-27T08:31:36;7.25;;;3.47;;
75129;SDS011;63703;44.716;37.846;2022-11-27T08:34:02;6.60;;;3.60;;
75129;SDS011;63703;44.716;37.846;2022-11-27T08:36:28;5.38;;;3.95;;
75129;SDS011;63703;44.716;37.846;2022-11-27T08:38:54;3.75;;;1.80;;
75129;SDS011;63703;44.716;37.846;2022-11-27T08:41:20;5.97;;;3.75;;
75129;SDS011;63703;44.716;37.846;2022-11-27T08:43:46;6.88;;;3.40;;
75129;SDS011;63703;44.716;37.846;2022-11-27T08:46:13;4.80;;;3.17;;
75129;SDS011;63703;44.716;37.846;2022-11-27T08:48:39;4.88;;;3.50;;
75129;SDS011;63703;44.716;37.846;2022-11-27T08:51:07;5.22;;;3.65;;
75129;SDS011;63703;44.716;37.846;2022-11-27T08:53:37;5.63;;;3.17;;
75129;SDS011;63703;44.716;37.846;2022-11-27T08:56:04;4.45;;;2.65;;
75129;SDS011;63703;44.716;37.846;2022-11-27T08:58:31;5.00;;;3.30;;
75129;SDS011;63703;44.716;37.846;2022-11-27T09:00:57;3.95;;;1.48;;
75129;SDS011;63703;44.716;37.846;2022-11-27T09:03:23;5.93;;;4.10;;
75129;SDS011;63703;44.716;37.846;2022-11-27T09:05:49;5.60;;;3.30;;
75129;SDS011;63703;44.716;37.846;2022-11-27T09:08:15;5.88;;;3.63;;
75129;SDS011;63703;44.716;37.846;2022-11-27T09:10:44;5.68;;;4.30;;
75129;SDS011;63703;44.716;37.846;2022-11-27T09:13:10;4.40;;;3.35;;
75129;SDS011;63703;44.716;37.846;2022-11-27T09:15:36;4.70;;;3.13;;
75129;SDS011;63703;44.716;37.846;2022-11-27T09:18:02;4.20;;;2.17;;
75129;SDS011;63703;44.716;37.846;2022-11-27T09:20:28;5.65;;;3.55;;
75129;SDS011;63703;44.716;37.846;2022-11-27T09:22:54;4.38;;;2.30;;
75129;SDS011;63703;44.716;37.846;2022-11-27T09:25:20;5.93;;;3.58;;
75129;SDS011;63703;44.716;37.846;2022-11-27T09:27:46;4.97;;;3.58;;
75129;SDS011;63703;44.716;37.846;2022-11-27T09:30:12;5.65;;;3.28;;
75129;SDS011;63703;44.716;37.846;2022-11-27T09:32:38;4.18;;;2.53;;
75129;SDS011;63703;44.716;37.846;2022-11-27T09:35:04;5.15;;;2.10;;
75129;SDS011;63703;44.716;37.846;2022-11-27T09:37:30;5.03;;;3.42;;
75129;SDS011;63703;44.716;37.846;2022-11-27T09:39:56;6.22;;;3.55;;
75129;SDS011;63703;44.716;37.846;2022-11-27T09:42:28;4.10;;;1.42;;
75129;SDS011;63703;44.716;37.846;2022-11-27T09:44:59;6.22;;;4.22;;
75129;SDS011;63703;44.716;37.846;2022-11-27T09:47:35;4.70;;;2.45;;
75129;SDS011;63703;44.716;37.846;2022-11-27T09:50:16;7.40;;;3.78;;
75129;SDS011;63703;44.716;37.846;2022-11-27T09:55:14;5.38;;;3.55;;
75129;SDS011;63703;44.716;37.846;2022-11-27T09:58:18;6.68;;;3.53;;
75129;SDS011;63703;44.716;37.846;2022-11-27T10:00:50;5.38;;;3.58;;
75129;SDS011;63703;44.716;37.846;2022-11-27T10:03:20;4.88;;;3.28;;
75129;SDS011;63703;44.716;37.846;2022-11-27T10:06:02;5.38;;;2.55;;
75129;SDS011;63703;44.716;37.846;2022-11-27T10:17:04;5.07;;;3.83;;
75129;SDS011;63703;44.716;37.846;2022-11-27T10:25:16;6.22;;;2.80;;
75129;SDS011;63703;44.716;37.846;2022-11-27T10:30:28;5.38;;;3.35;;
75129;SDS011;63703;44.716;37.846;2022-11-27T10:32:57;6.00;;;3.63;;
75129;SDS011;63703;44.716;37.846;2022-11-27T10:35:28;4.68;;;1.60;;
75129;SDS011;63703;44.716;37.846;2022-11-27T10:38:08;6.47;;;3.90;;
75129;SDS011;63703;44.716;37.846;2022-11-27T10:40:41;5.93;;;4.55;;
75129;SDS011;63703;44.716;37.846;2022-11-27T10:43:19;5.47;;;3.72;;
75129;SDS011;63703;44.716;37.846;2022-11-27T10:48:21;6.40;;;4.07;;
75129;SDS011;63703;44.716;37.846;2022-11-27T10:50:48;8.38;;;3.65;;
75129;SDS011;63703;44.716;37.846;2022-11-27T10:53:18;4.60;;;2.05;;
75129;SDS011;63703;44.716;37.846;2022-11-27T11:01:19;5.60;;;4.05;;
75129;SDS011;63703;44.716;37.846;2022-11-27T11:03:46;4.75;;;2.60;;
75129;SDS011;63703;44.716;37.846;2022-11-27T11:06:13;5.85;;;3.40;;
75129;SDS011;63703;44.716;37.846;2022-11-27T11:08:42;4.20;;;2.67;;
75129;SDS011;63703;44.716;37.846;2022-11-27T11:11:09;6.78;;;3.67;;
75129;SDS011;63703;44.716;37.846;2022-11-27T11:13:42;4.78;;;3.85;;
75129;SDS011;63703;44.716;37.846;2022-11-27T11:16:17;4.32;;;3.30;;
75129;SDS011;63703;44.716;37.846;2022-11-27T11:18:47;3.42;;;1.92;;
75129;SDS011;63703;44.716;37.846;2022-11-27T11:21:15;4.80;;;3.13;;
75129;SDS011;63703;44.716;37.846;2022-11-27T11:24:14;3.78;;;2.22;;
75129;SDS011;63703;44.716;37.846;2022-11-27T11:26:53;4.25;;;3.50;;
75129;SDS011;63703;44.716;37.846;2022-11-27T11:29:45;4.55;;;3.63;;
75129;SDS011;63703;44.716;37.846;2022-11-27T11:32:27;4.50;;;2.60;;
75129;SDS011;63703;44.716;37.846;2022-11-27T11:35:00;4.40;;;2.97;;
75129;SDS011;63703;44.716;37.846;2022-11-27T11:37:30;5.30;;;3.40;;
75129;SDS011;63703;44.716;37.846;2022-11-27T11:43:51;3.28;;;2.20;;
75129;SDS011;63703;44.716;37.846;2022-11-27T11:45:53;3.38;;;2.63;;
75129;SDS011;63703;44.716;37.846;2022-11-27T11:48:26;3.50;;;2.97;;
75129;SDS011;63703;44.716;37.846;2022-11-27T11:51:05;4.32;;;3.70;;
75129;SDS011;63703;44.716;37.846;2022-11-27T11:53:42;3.92;;;2.80;;
75129;SDS011;63703;44.716;37.846;2022-11-27T11:56:19;3.63;;;2.70;;
75129;SDS011;63703;44.716;37.846;2022-11-27T12:02:00;3.33;;;2.47;;
75129;SDS011;63703;44.716;37.846;2022-11-27T12:10:21;3.10;;;2.38;;
75129;SDS011;63703;44.716;37.846;2022-11-27T12:23:52;2.28;;;1.13;;
75129;SDS011;63703;44.716;37.846;2022-11-27T12:31:59;4.13;;;2.40;;
75129;SDS011;63703;44.716;37.846;2022-11-27T12:48:20;3.30;;;2.35;;
75129;SDS011;63703;44.716;37.846;2022-11-27T12:53:25;3.80;;;2.35;;
75129;SDS011;63703;44.716;37.846;2022-11-27T12:58:45;3.70;;;2.72;;
75129;SDS011;63703;44.716;37.846;2022-11-27T13:01:18;2.80;;;1.08;;
75129;SDS011;63703;44.716;37.846;2022-11-27T13:03:59;4.25;;;2.90;;
75129;SDS011;63703;44.716;37.846;2022-11-27T13:06:45;4.45;;;3.15;;
75129;SDS011;63703;44.716;37.846;2022-11-27T13:09:18;3.88;;;2.78;;
75129;SDS011;63703;44.716;37.846;2022-11-27T13:11:51;3.47;;;2.22;;
75129;SDS011;63703;44.716;37.846;2022-11-27T13:14:19;3.33;;;2.83;;
75129;SDS011;63703;44.716;37.846;2022-11-27T13:16:51;4.32;;;3.08;;
75129;SDS011;63703;44.716;37.846;2022-11-27T13:21:46;8.43;;;3.38;;
75129;SDS011;63703;44.716;37.846;2022-11-27T13:24:14;3.97;;;1.77;;
75129;SDS011;63703;44.716;37.846;2022-11-27T13:26:44;4.97;;;2.75;;
75129;SDS011;63703;44.716;37.846;2022-11-27T13:32:22;6.90;;;3.60;;
75129;SDS011;63703;44.716;37.846;2022-11-27T13:34:54;7.78;;;4.50;;
75129;SDS011;63703;44.716;37.846;2022-11-27T13:37:26;6.18;;;3.95;;
75129;SDS011;63703;44.716;37.846;2022-11-27T13:42:44;5.82;;;4.63;;
75129;SDS011;63703;44.716;37.846;2022-11-27T13:45:26;5.18;;;3.90;;
75129;SDS011;63703;44.716;37.846;2022-11-27T13:47:55;4.78;;;2.58;;
75129;SDS011;63703;44.716;37.846;2022-11-27T13:50:24;5.35;;;2.85;;
75129;SDS011;63703;44.716;37.846;2022-11-27T13:55:34;5.03;;;1.90;;
75129;SDS011;63703;44.716;37.846;2022-11-27T13:58:03;5.78;;;3.10;;
75129;SDS011;63703;44.716;37.846;2022-11-27T14:00:37;4.03;;;3.13;;
75129;SDS011;63703;44.716;37.846;2022-11-27T14:03:06;4.85;;;4.32;;
75129;SDS011;63703;44.716;37.846;2022-11-27T14:05:44;7.60;;;3.42;;
75129;SDS011;63703;44.716;37.846;2022-11-27T14:10:48;4.28;;;3.05;;
75129;SDS011;63703;44.716;37.846;2022-11-27T14:13:16;4.75;;;2.67;;
75129;SDS011;63703;44.716;37.846;2022-11-27T14:15:55;3.67;;;3.00;;
75129;SDS011;63703;44.716;37.846;2022-11-27T14:18:28;5.50;;;3.60;;
75129;SDS011;63703;44.716;37.846;2022-11-27T14:20:57;4.72;;;3.80;;
75129;SDS011;63703;44.716;37.846;2022-11-27T14:23:32;4.78;;;3.42;;
75129;SDS011;63703;44.716;37.846;2022-11-27T14:26:33;4.78;;;3.25;;
75129;SDS011;63703;44.716;37.846;2022-11-27T14:28:55;4.78;;;3.60;;
75129;SDS011;63703;44.716;37.846;2022-11-27T14:31:31;5.10;;;3.13;;
75129;SDS011;63703;44.716;37.846;2022-11-27T14:33:59;4.47;;;3.13;;
75129;SDS011;63703;44.716;37.846;2022-11-27T14:36:30;4.72;;;3.55;;
75129;SDS011;63703;44.716;37.846;2022-11-27T14:38:59;4.35;;;3.30;;
75129;SDS011;63703;44.716;37.846;2022-11-27T14:41:26;4.88;;;3.60;;
75129;SDS011;63703;44.716;37.846;2022-11-27T14:44:00;5.60;;;3.65;;
75129;SDS011;63703;44.716;37.846;2022-11-27T14:46:32;4.65;;;3.65;;
75129;SDS011;63703;44.716;37.846;2022-11-27T14:49:01;3.92;;;2.95;;
75129;SDS011;63703;44.716;37.846;2022-11-27T14:51:31;4.18;;;2.92;;
75129;SDS011;63703;44.716;37.846;2022-11-27T14:54:08;4.82;;;2.25;;
75129;SDS011;63703;44.716;37.846;2022-11-27T14:56:40;3.53;;;2.78;;
75129;SDS011;63703;44.716;37.846;2022-11-27T14:59:14;4.13;;;2.25;;
75129;SDS011;63703;44.716;37.846;2022-11-27T15:01:42;2.80;;;1.83;;
75129;SDS011;63703;44.716;37.846;2022-11-27T15:04:32;7.15;;;4.93;;
75129;SDS011;63703;44.716;37.846;2022-11-27T15:07:06;5.88;;;4.78;;
75129;SDS011;63703;44.716;37.846;2022-11-27T15:09:37;5.35;;;4.40;;
75129;SDS011;63703;44.716;37.846;2022-11-27T15:12:28;4.32;;;3.28;;
75129;SDS011;63703;44.716;37.846;2022-11-27T15:15:14;3.92;;;2.97;;
75129;SDS011;63703;44.716;37.846;2022-11-27T15:17:46;3.92;;;3.28;;
75129;SDS011;63703;44.716;37.846;2022-11-27T15:20:15;4.60;;;3.17;;
75129;SDS011;63703;44.716;37.846;2022-11-27T15:22:52;3.97;;;2.90;;
75129;SDS011;63703;44.716;37.846;2022-11-27T15:25:39;5.90;;;2.78;;
75129;SDS011;63703;44.716;37.846;2022-11-27T15:30:55;4.68;;;4.18;;
75129;SDS011;63703;44.716;37.846;2022-11-27T15:33:28;4.32;;;3.15;;
75129;SDS011;63703;44.716;37.846;2022-11-27T15:36:15;4.15;;;2.83;;
75129;SDS011;63703;44.716;37.846;2022-11-27T15:38:45;4.55;;;3.50;;
75129;SDS011;63703;44.716;37.846;2022-11-27T15:41:29;3.63;;;3.30;;
75129;SDS011;63703;44.716;37.846;2022-11-27T15:46:25;5.30;;;3.65;;
75129;SDS011;63703;44.716;37.846;2022-11-27T15:48:56;4.50;;;4.03;;
75129;SDS011;63703;44.716;37.846;2022-11-27T15:51:22;3.38;;;2.55;;
75129;SDS011;63703;44.716;37.846;2022-11-27T15:53:48;4.13;;;3.42;;
75129;SDS011;63703;44.716;37.846;2022-11-27T15:56:14;3.72;;;2.80;;
75129;SDS011;63703;44.716;37.846;2022-11-27T15:58:41;3.50;;;1.48;;
75129;SDS011;63703;44.716;37.846;2022-11-27T16:01:08;4.38;;;3.00;;
75129;SDS011;63703;44.716;37.846;2022-11-27T16:03:35;4.13;;;3.53;;
75129;SDS011;63703;44.716;37.846;2022-11-27T16:06:02;4.40;;;3.58;;
75129;SDS011;63703;44.716;37.846;2022-11-27T16:08:29;4.63;;;4.00;;
75129;SDS011;63703;44.716;37.846;2022-11-27T16:10:58;6.95;;;4.15;;
75129;SDS011;63703;44.716;37.846;2022-11-27T16:13:29;4.53;;;2.85;;
75129;SDS011;63703;44.716;37.846;2022-11-27T16:15:59;5.85;;;3.92;;
75129;SDS011;63703;44.716;37.846;2022-11-27T16:18:32;4.63;;;3.25;;
75129;SDS011;63703;44.716;37.846;2022-11-27T16:21:05;3.28;;;2.25;;
75129;SDS011;63703;44.716;37.846;2022-11-27T16:23:34;3.80;;;2.80;;
75129;SDS011;63703;44.716;37.846;2022-11-27T16:26:01;4.25;;;1.80;;
75129;SDS011;63703;44.716;37.846;2022-11-27T16:28:30;4.20;;;3.70;;
75129;SDS011;63703;44.716;37.846;2022-11-27T16:30:57;4.50;;;3.22;;
75129;SDS011;63703;44.716;37.846;2022-11-27T16:33:26;4.15;;;3.35;;
75129;SDS011;63703;44.716;37.846;2022-11-27T16:35:53;4.13;;;3.13;;
75129;SDS011;63703;44.716;37.846;2022-11-27T16:38:20;5.75;;;2.75;;
75129;SDS011;63703;44.716;37.846;2022-11-27T16:40:48;3.97;;;3.50;;
75129;SDS011;63703;44.716;37.846;2022-11-27T16:43:14;3.85;;;3.22;;
75129;SDS011;63703;44.716;37.846;2022-11-27T16:45:42;4.22;;;2.88;;
75129;SDS011;63703;44.716;37.846;2022-11-27T16:48:08;3.35;;;2.40;;
75129;SDS011;63703;44.716;37.846;2022-11-27T16:50:35;3.70;;;2.95;;